sensor_id;sensor_type;location;lat;lon;timestamp;pressure;altitude;pressure_sealevel;temperature;humidity
51849;BME280;38952;51.090;-1.832;2023-04-27T00:00:28;100495.19;;;5.90;64.23
51849;BME280;38952;51.090;-1.832;2023-04-27T00:02:54;100490.81;;;5.89;63.82
51849;BME280;38952;51.090;-1.832;2023-04-27T00:05:19;100469.00;;;5.84;63.76
51849;BME280;38952;51.090;-1.832;2023-04-27T00:07:45;100491.44;;;5.91;64.16
51849;BME280;38952;51.090;-1.832;2023-04-27T00:10:10;100478.09;;;5.90;64.33
51849;BME280;38952;51.090;-1.832;2023-04-27T00:12:36;100478.44;;;5.93;63.87
51849;BME280;38952;51.090;-1.832;2023-04-27T00:15:02;100470.16;;;5.88;63.97
51849;BME280;38952;51.090;-1.832;2023-04-27T00:17:28;100465.09;;;5.92;63.96
51849;BME280;38952;51.090;-1.832;2023-04-27T00:19:53;100458.88;;;5.91;64.55
51849;BME280;38952;51.090;-1.832;2023-04-27T00:22:19;100455.78;;;5.88;64.39
51849;BME280;38952;51.090;-1.832;2023-04-27T00:24:45;100454.34;;;5.85;64.50
51849;BME280;38952;51.090;-1.832;2023-04-27T00:27:10;100452.34;;;5.81;64.35
51849;BME280;38952;51.090;-1.832;2023-04-27T00:29:41;100468.16;;;5.84;65.02
51849;BME280;38952;51.090;-1.832;2023-04-27T00:32:08;100461.53;;;5.80;65.29
51849;BME280;38952;51.090;-1.832;2023-04-27T00:34:34;100463.44;;;5.79;64.50
51849;BME280;38952;51.090;-1.832;2023-04-27T00:37:00;100458.97;;;5.85;65.13
51849;BME280;38952;51.090;-1.832;2023-04-27T00:39:26;100465.94;;;5.92;64.53
51849;BME280;38952;51.090;-1.832;2023-04-27T00:41:51;100455.00;;;5.99;65.19
51849;BME280;38952;51.090;-1.832;2023-04-27T00:44:24;100463.03;;;6.18;65.28
51849;BME280;38952;51.090;-1.832;2023-04-27T00:46:50;100459.00;;;6.32;64.88
51849;BME280;38952;51.090;-1.832;2023-04-27T00:49:16;100452.25;;;6.46;64.32
51849;BME280;38952;51.090;-1.832;2023-04-27T00:51:42;100449.88;;;6.62;64.41
51849;BME280;38952;51.090;-1.832;2023-04-27T00:54:07;100447.16;;;6.74;64.36
51849;BME280;38952;51.090;-1.832;2023-04-27T00:56:33;100445.44;;;6.85;63.69
51849;BME280;38952;51.090;-1.832;2023-04-27T00:58:58;100443.06;;;7.00;63.40
51849;BME280;38952;51.090;-1.832;2023-04-27T01:01:24;100450.84;;;7.08;63.22
51849;BME280;38952;51.090;-1.832;2023-04-27T01:03:50;100436.41;;;7.08;63.86
51849;BME280;38952;51.090;-1.832;2023-04-27T01:06:15;100445.59;;;7.19;62.91
51849;BME280;38952;51.090;-1.832;2023-04-27T01:08:41;100427.69;;;7.23;63.56
51849;BME280;38952;51.090;-1.832;2023-04-27T01:11:06;100428.63;;;7.28;63.42
51849;BME280;38952;51.090;-1.832;2023-04-27T01:13:32;100438.31;;;7.36;63.01
51849;BME280;38952;51.090;-1.832;2023-04-27T01:15:57;100452.66;;;7.48;62.54
51849;BME280;38952;51.090;-1.832;2023-04-27T01:18:24;100446.97;;;7.50;63.66
51849;BME280;38952;51.090;-1.832;2023-04-27T01:20:49;100442.38;;;7.50;62.94
51849;BME280;38952;51.090;-1.832;2023-04-27T01:23:15;100450.59;;;7.56;62.57
51849;BME280;38952;51.090;-1.832;2023-04-27T01:25:40;100448.47;;;7.58;62.90
51849;BME280;38952;51.090;-1.832;2023-04-27T01:28:05;100455.66;;;7.64;62.27
51849;BME280;38952;51.090;-1.832;2023-04-27T01:30:31;100455.72;;;7.69;62.22
51849;BME280;38952;51.090;-1.832;2023-04-27T01:32:56;100457.72;;;7.74;63.17
51849;BME280;38952;51.090;-1.832;2023-04-27T01:35:22;100456.91;;;7.73;62.46
51849;BME280;38952;51.090;-1.832;2023-04-27T01:37:47;100459.72;;;7.78;63.02
51849;BME280;38952;51.090;-1.832;2023-04-27T01:40:13;100459.47;;;7.80;62.30
51849;BME280;38952;51.090;-1.832;2023-04-27T01:42:38;100456.50;;;7.81;62.80
51849;BME280;38952;51.090;-1.832;2023-04-27T01:45:04;100449.16;;;7.82;62.75
51849;BME280;38952;51.090;-1.832;2023-04-27T01:47:30;100460.34;;;7.85;62.81
51849;BME280;38952;51.090;-1.832;2023-04-27T01:49:55;100468.31;;;7.87;62.36
51849;BME280;38952;51.090;-1.832;2023-04-27T01:52:21;100457.06;;;7.83;62.44
51849;BME280;38952;51.090;-1.832;2023-04-27T01:54:46;100465.91;;;7.91;62.80
51849;BME280;38952;51.090;-1.832;2023-04-27T01:57:11;100461.03;;;7.93;61.95
51849;BME280;38952;51.090;-1.832;2023-04-27T01:59:38;100462.13;;;7.92;62.43
51849;BME280;38952;51.090;-1.832;2023-04-27T02:02:03;100461.88;;;7.93;62.88
51849;BME280;38952;51.090;-1.832;2023-04-27T02:04:29;100457.81;;;7.96;62.71
51849;BME280;38952;51.090;-1.832;2023-04-27T02:06:54;100447.66;;;7.91;62.45
51849;BME280;38952;51.090;-1.832;2023-04-27T02:09:20;100435.44;;;7.94;62.52
51849;BME280;38952;51.090;-1.832;2023-04-27T02:11:45;100437.09;;;7.95;62.09
51849;BME280;38952;51.090;-1.832;2023-04-27T02:14:11;100438.75;;;7.96;62.32
51849;BME280;38952;51.090;-1.832;2023-04-27T02:16:36;100434.63;;;7.93;62.08
51849;BME280;38952;51.090;-1.832;2023-04-27T02:19:01;100429.50;;;7.97;63.08
51849;BME280;38952;51.090;-1.832;2023-04-27T02:21:28;100436.59;;;7.98;62.31
51849;BME280;38952;51.090;-1.832;2023-04-27T02:23:54;100432.31;;;8.02;62.10
51849;BME280;38952;51.090;-1.832;2023-04-27T02:26:21;100430.16;;;8.04;62.99
51849;BME280;38952;51.090;-1.832;2023-04-27T02:28:53;100421.47;;;8.07;62.93
51849;BME280;38952;51.090;-1.832;2023-04-27T02:31:19;100428.59;;;8.08;62.59
51849;BME280;38952;51.090;-1.832;2023-04-27T02:33:45;100423.72;;;8.10;62.36
51849;BME280;38952;51.090;-1.832;2023-04-27T02:36:10;100409.03;;;8.11;62.23
51849;BME280;38952;51.090;-1.832;2023-04-27T02:38:35;100410.19;;;8.15;62.96
51849;BME280;38952;51.090;-1.832;2023-04-27T02:41:01;100407.19;;;8.17;62.89
51849;BME280;38952;51.090;-1.832;2023-04-27T02:43:26;100405.03;;;8.19;63.01
51849;BME280;38952;51.090;-1.832;2023-04-27T02:45:52;100390.59;;;8.18;63.27
51849;BME280;38952;51.090;-1.832;2023-04-27T02:48:17;100392.81;;;8.21;63.39
51849;BME280;38952;51.090;-1.832;2023-04-27T02:50:43;100396.63;;;8.20;63.69
51849;BME280;38952;51.090;-1.832;2023-04-27T02:53:09;100392.25;;;8.19;63.93
51849;BME280;38952;51.090;-1.832;2023-04-27T02:55:35;100392.81;;;8.21;63.88
51849;BME280;38952;51.090;-1.832;2023-04-27T02:58:01;100398.34;;;8.27;63.90
51849;BME280;38952;51.090;-1.832;2023-04-27T03:00:26;100384.75;;;8.27;63.94
51849;BME280;38952;51.090;-1.832;2023-04-27T03:02:52;100371.13;;;8.27;63.21
51849;BME280;38952;51.090;-1.832;2023-04-27T03:05:17;100373.00;;;8.26;63.98
51849;BME280;38952;51.090;-1.832;2023-04-27T03:07:43;100369.19;;;8.27;64.17
51849;BME280;38952;51.090;-1.832;2023-04-27T03:10:09;100377.69;;;8.31;63.65
51849;BME280;38952;51.090;-1.832;2023-04-27T03:12:34;100374.97;;;8.31;64.31
51849;BME280;38952;51.090;-1.832;2023-04-27T03:15:00;100371.69;;;8.29;64.48
51849;BME280;38952;51.090;-1.832;2023-04-27T03:17:26;100373.84;;;8.27;64.19
51849;BME280;38952;51.090;-1.832;2023-04-27T03:19:51;100374.66;;;8.27;65.00
51849;BME280;38952;51.090;-1.832;2023-04-27T03:22:17;100365.66;;;8.27;64.35
51849;BME280;38952;51.090;-1.832;2023-04-27T03:24:43;100357.50;;;8.27;64.16
51849;BME280;38952;51.090;-1.832;2023-04-27T03:27:08;100367.38;;;8.33;65.06
51849;BME280;38952;51.090;-1.832;2023-04-27T03:29:34;100360.59;;;8.35;64.87
51849;BME280;38952;51.090;-1.832;2023-04-27T03:31:59;100355.16;;;8.35;64.88
51849;BME280;38952;51.090;-1.832;2023-04-27T03:34:25;100347.25;;;8.34;65.11
51849;BME280;38952;51.090;-1.832;2023-04-27T03:36:50;100350.53;;;8.36;64.71
51849;BME280;38952;51.090;-1.832;2023-04-27T03:39:15;100354.94;;;8.42;64.52
51849;BME280;38952;51.090;-1.832;2023-04-27T03:41:41;100351.66;;;8.40;65.04
51849;BME280;38952;51.090;-1.832;2023-04-27T03:44:06;100350.59;;;8.41;64.88
51849;BME280;38952;51.090;-1.832;2023-04-27T03:46:32;100342.91;;;8.38;64.96
51849;BME280;38952;51.090;-1.832;2023-04-27T03:48:58;100342.91;;;8.38;65.36
51849;BME280;38952;51.090;-1.832;2023-04-27T03:51:23;100337.97;;;8.35;65.66
51849;BME280;38952;51.090;-1.832;2023-04-27T03:53:49;100331.69;;;8.34;65.03
51849;BME280;38952;51.090;-1.832;2023-04-27T03:56:14;100343.41;;;8.35;65.85
51849;BME280;38952;51.090;-1.832;2023-04-27T03:58:40;100337.16;;;8.34;65.70
51849;BME280;38952;51.090;-1.832;2023-04-27T04:01:06;100342.84;;;8.33;65.71
51849;BME280;38952;51.090;-1.832;2023-04-27T04:03:35;100342.25;;;8.31;65.65
51849;BME280;38952;51.090;-1.832;2023-04-27T04:06:00;100331.88;;;8.28;66.37
51849;BME280;38952;51.090;-1.832;2023-04-27T04:08:28;100325.34;;;8.29;65.64
51849;BME280;38952;51.090;-1.832;2023-04-27T04:10:55;100320.69;;;8.24;66.01
51849;BME280;38952;51.090;-1.832;2023-04-27T04:13:20;100323.69;;;8.28;66.80
51849;BME280;38952;51.090;-1.832;2023-04-27T04:15:46;100320.97;;;8.28;66.08
51849;BME280;38952;51.090;-1.832;2023-04-27T04:18:11;100319.34;;;8.27;66.40
51849;BME280;38952;51.090;-1.832;2023-04-27T04:20:37;100323.69;;;8.28;67.17
51849;BME280;38952;51.090;-1.832;2023-04-27T04:23:02;100326.94;;;8.25;67.00
51849;BME280;38952;51.090;-1.832;2023-04-27T04:25:28;100323.16;;;8.26;66.75
51849;BME280;38952;51.090;-1.832;2023-04-27T04:27:53;100315.41;;;8.17;67.11
51849;BME280;38952;51.090;-1.832;2023-04-27T04:30:19;100318.22;;;8.23;67.40
51849;BME280;38952;51.090;-1.832;2023-04-27T04:32:44;100316.53;;;8.21;67.15
51849;BME280;38952;51.090;-1.832;2023-04-27T04:35:10;100311.94;;;8.22;67.20
51849;BME280;38952;51.090;-1.832;2023-04-27T04:37:36;100318.84;;;8.30;67.40
51849;BME280;38952;51.090;-1.832;2023-04-27T04:40:05;100311.22;;;8.32;67.73
51849;BME280;38952;51.090;-1.832;2023-04-27T04:42:34;100312.38;;;8.36;67.06
51849;BME280;38952;51.090;-1.832;2023-04-27T04:45:01;100304.19;;;8.36;67.51
51849;BME280;38952;51.090;-1.832;2023-04-27T04:47:27;100290.06;;;8.39;67.79
51849;BME280;38952;51.090;-1.832;2023-04-27T04:49:55;100301.06;;;8.44;67.80
51849;BME280;38952;51.090;-1.832;2023-04-27T04:52:21;100302.09;;;8.43;67.40
51849;BME280;38952;51.090;-1.832;2023-04-27T04:54:46;100311.19;;;8.49;67.99
51849;BME280;38952;51.090;-1.832;2023-04-27T04:57:12;100309.81;;;8.46;67.40
51849;BME280;38952;51.090;-1.832;2023-04-27T04:59:37;100307.63;;;8.48;67.82
51849;BME280;38952;51.090;-1.832;2023-04-27T05:02:03;100315.31;;;8.51;67.66
51849;BME280;38952;51.090;-1.832;2023-04-27T05:04:28;100311.50;;;8.52;67.72
51849;BME280;38952;51.090;-1.832;2023-04-27T05:06:53;100301.69;;;8.51;67.86
51849;BME280;38952;51.090;-1.832;2023-04-27T05:09:19;100296.81;;;8.53;68.16
51849;BME280;38952;51.090;-1.832;2023-04-27T05:11:44;100284.25;;;8.52;67.86
51849;BME280;38952;51.090;-1.832;2023-04-27T05:14:10;100295.78;;;8.60;68.26
51849;BME280;38952;51.090;-1.832;2023-04-27T05:16:35;100295.25;;;8.63;68.30
51849;BME280;38952;51.090;-1.832;2023-04-27T05:19:00;100290.66;;;8.63;68.26
51849;BME280;38952;51.090;-1.832;2023-04-27T05:21:26;100295.31;;;8.68;67.90
51849;BME280;38952;51.090;-1.832;2023-04-27T05:23:51;100295.88;;;8.70;67.91
51849;BME280;38952;51.090;-1.832;2023-04-27T05:26:17;100306.25;;;8.73;68.32
51849;BME280;38952;51.090;-1.832;2023-04-27T05:28:43;100311.72;;;8.73;67.98
51849;BME280;38952;51.090;-1.832;2023-04-27T05:31:09;100319.97;;;8.78;68.79
51849;BME280;38952;51.090;-1.832;2023-04-27T05:33:36;100297.53;;;8.71;69.16
51849;BME280;38952;51.090;-1.832;2023-04-27T05:36:07;100283.91;;;8.71;68.95
51849;BME280;38952;51.090;-1.832;2023-04-27T05:38:33;100293.84;;;8.82;68.39
51849;BME280;38952;51.090;-1.832;2023-04-27T05:41:11;100268.09;;;8.73;69.02
51849;BME280;38952;51.090;-1.832;2023-04-27T05:43:53;100285.78;;;8.98;68.35
51849;BME280;38952;51.090;-1.832;2023-04-27T05:46:19;100280.06;;;8.99;68.69
51849;BME280;38952;51.090;-1.832;2023-04-27T05:48:57;100309.50;;;9.24;68.64
51849;BME280;38952;51.090;-1.832;2023-04-27T05:51:27;100307.28;;;9.21;68.73
51849;BME280;38952;51.090;-1.832;2023-04-27T05:53:56;100285.06;;;9.07;69.11
51849;BME280;38952;51.090;-1.832;2023-04-27T05:56:34;100295.25;;;9.17;68.66
51849;BME280;38952;51.090;-1.832;2023-04-27T05:59:06;100259.69;;;9.07;68.94
51849;BME280;38952;51.090;-1.832;2023-04-27T06:01:44;100286.63;;;9.31;68.71
51849;BME280;38952;51.090;-1.832;2023-04-27T06:04:10;100269.78;;;9.39;68.72
51849;BME280;38952;51.090;-1.832;2023-04-27T06:06:35;100280.84;;;9.59;69.36
51849;BME280;38952;51.090;-1.832;2023-04-27T06:09:01;100285.50;;;9.69;68.47
51849;BME280;38952;51.090;-1.832;2023-04-27T06:11:35;100275.50;;;9.80;68.44
51849;BME280;38952;51.090;-1.832;2023-04-27T06:14:01;100259.09;;;9.80;68.12
51849;BME280;38952;51.090;-1.832;2023-04-27T06:16:27;100267.66;;;9.99;68.39
51849;BME280;38952;51.090;-1.832;2023-04-27T06:18:52;100271.78;;;10.02;68.57
51849;BME280;38952;51.090;-1.832;2023-04-27T06:21:17;100288.53;;;10.21;68.38
51849;BME280;38952;51.090;-1.832;2023-04-27T06:23:43;100283.03;;;10.16;67.91
51849;BME280;38952;51.090;-1.832;2023-04-27T06:26:08;100294.50;;;10.18;68.50
51849;BME280;38952;51.090;-1.832;2023-04-27T06:28:34;100273.41;;;10.03;68.19
51849;BME280;38952;51.090;-1.832;2023-04-27T06:30:59;100283.34;;;10.19;68.44
51849;BME280;38952;51.090;-1.832;2023-04-27T06:33:26;100273.50;;;10.18;68.17
51849;BME280;38952;51.090;-1.832;2023-04-27T06:35:52;100298.94;;;10.29;68.53
51849;BME280;38952;51.090;-1.832;2023-04-27T06:38:17;100271.28;;;10.15;68.51
51849;BME280;38952;51.090;-1.832;2023-04-27T06:40:43;100283.56;;;10.18;68.12
51849;BME280;38952;51.090;-1.832;2023-04-27T06:43:09;100283.84;;;10.16;68.46
51849;BME280;38952;51.090;-1.832;2023-04-27T06:45:35;100286.59;;;10.16;68.98
51849;BME280;38952;51.090;-1.832;2023-04-27T06:48:01;100289.25;;;10.06;69.03
51849;BME280;38952;51.090;-1.832;2023-04-27T06:50:26;100294.72;;;10.06;68.69
51849;BME280;38952;51.090;-1.832;2023-04-27T06:52:52;100294.72;;;10.06;69.17
51849;BME280;38952;51.090;-1.832;2023-04-27T06:55:17;100279.44;;;10.05;69.31
51849;BME280;38952;51.090;-1.832;2023-04-27T06:57:42;100301.34;;;10.20;69.58
51849;BME280;38952;51.090;-1.832;2023-04-27T07:00:08;100294.78;;;10.16;69.44
51849;BME280;38952;51.090;-1.832;2023-04-27T07:02:37;100326.56;;;10.33;69.49
51849;BME280;38952;51.090;-1.832;2023-04-27T07:05:02;100310.34;;;10.16;69.56
51849;BME280;38952;51.090;-1.832;2023-04-27T07:07:28;100316.13;;;10.19;69.65
51849;BME280;38952;51.090;-1.832;2023-04-27T07:09:56;100316.13;;;10.19;69.89
51849;BME280;38952;51.090;-1.832;2023-04-27T07:12:22;100326.00;;;10.25;69.65
51849;BME280;38952;51.090;-1.832;2023-04-27T07:14:47;100333.09;;;10.26;70.02
51849;BME280;38952;51.090;-1.832;2023-04-27T07:17:15;100299.47;;;10.21;69.74
51849;BME280;38952;51.090;-1.832;2023-04-27T07:19:49;100305.25;;;10.29;70.18
51849;BME280;38952;51.090;-1.832;2023-04-27T07:22:22;100304.28;;;10.56;69.94
51849;BME280;38952;51.090;-1.832;2023-04-27T07:24:47;100289.00;;;10.76;70.03
51849;BME280;38952;51.090;-1.832;2023-04-27T07:27:24;100287.94;;;10.87;69.43
51849;BME280;38952;51.090;-1.832;2023-04-27T07:30:01;100285.72;;;10.89;68.94
51849;BME280;38952;51.090;-1.832;2023-04-27T07:32:32;100278.34;;;10.85;69.21
51849;BME280;38952;51.090;-1.832;2023-04-27T07:34:58;100266.03;;;10.87;69.25
51849;BME280;38952;51.090;-1.832;2023-04-27T07:37:29;100270.97;;;11.00;68.59
51849;BME280;38952;51.090;-1.832;2023-04-27T07:40:06;100269.63;;;11.03;68.53
51849;BME280;38952;51.090;-1.832;2023-04-27T07:42:46;100268.25;;;11.16;68.86
51849;BME280;38952;51.090;-1.832;2023-04-27T07:45:12;100254.56;;;11.11;69.05
51849;BME280;38952;51.090;-1.832;2023-04-27T07:47:43;100250.47;;;11.29;68.24
51849;BME280;38952;51.090;-1.832;2023-04-27T07:50:19;100257.81;;;11.54;68.04
51849;BME280;38952;51.090;-1.832;2023-04-27T07:52:48;100247.94;;;11.68;67.42
51849;BME280;38952;51.090;-1.832;2023-04-27T07:55:13;100239.38;;;11.85;66.31
51849;BME280;38952;51.090;-1.832;2023-04-27T07:57:49;100249.00;;;11.83;65.95
51849;BME280;38952;51.090;-1.832;2023-04-27T08:00:15;100258.03;;;11.68;66.08
51849;BME280;38952;51.090;-1.832;2023-04-27T08:02:44;100253.44;;;11.58;66.31
51849;BME280;38952;51.090;-1.832;2023-04-27T08:05:14;100248.50;;;11.55;66.30
51849;BME280;38952;51.090;-1.832;2023-04-27T08:07:56;100255.59;;;11.56;66.50
51849;BME280;38952;51.090;-1.832;2023-04-27T08:13:26;100258.88;;;11.68;66.77
51849;BME280;38952;51.090;-1.832;2023-04-27T08:16:02;100245.16;;;11.74;65.54
51849;BME280;38952;51.090;-1.832;2023-04-27T08:18:28;100251.16;;;11.96;66.05
51849;BME280;38952;51.090;-1.832;2023-04-27T08:20:55;100234.16;;;11.99;65.39
51849;BME280;38952;51.090;-1.832;2023-04-27T08:23:41;100262.31;;;12.15;65.10
51849;BME280;38952;51.090;-1.832;2023-04-27T08:26:06;100249.75;;;12.09;65.37
51849;BME280;38952;51.090;-1.832;2023-04-27T08:28:42;100223.69;;;12.12;64.78
51849;BME280;38952;51.090;-1.832;2023-04-27T08:31:08;100245.03;;;12.20;64.04
51849;BME280;38952;51.090;-1.832;2023-04-27T08:33:33;100230.88;;;11.92;63.90
51849;BME280;38952;51.090;-1.832;2023-04-27T08:36:07;100259.38;;;11.96;64.47
51849;BME280;38952;51.090;-1.832;2023-04-27T08:38:42;100249.78;;;11.83;64.67
51849;BME280;38952;51.090;-1.832;2023-04-27T08:41:07;100225.38;;;11.92;64.60
51849;BME280;38952;51.090;-1.832;2023-04-27T08:43:35;100239.84;;;12.18;63.94
51849;BME280;38952;51.090;-1.832;2023-04-27T08:46:23;100250.69;;;12.39;63.84
51849;BME280;38952;51.090;-1.832;2023-04-27T08:49:00;100235.94;;;12.30;63.46
51849;BME280;38952;51.090;-1.832;2023-04-27T08:51:42;100253.78;;;12.27;64.06
51849;BME280;38952;51.090;-1.832;2023-04-27T08:54:07;100222.59;;;12.13;63.99
51849;BME280;38952;51.090;-1.832;2023-04-27T08:56:42;100227.50;;;12.21;64.02
51849;BME280;38952;51.090;-1.832;2023-04-27T08:59:12;100241.63;;;12.44;63.84
51849;BME280;38952;51.090;-1.832;2023-04-27T09:01:47;100224.97;;;12.74;62.66
51849;BME280;38952;51.090;-1.832;2023-04-27T09:04:16;100208.59;;;12.99;62.07
51849;BME280;38952;51.090;-1.832;2023-04-27T09:06:45;100175.28;;;13.10;61.02
51849;BME280;38952;51.090;-1.832;2023-04-27T09:09:22;100200.66;;;13.56;59.80
51849;BME280;38952;51.090;-1.832;2023-04-27T09:11:47;100198.69;;;13.61;59.12
51849;BME280;38952;51.090;-1.832;2023-04-27T09:14:19;100217.13;;;14.04;58.42
51849;BME280;38952;51.090;-1.832;2023-04-27T09:16:45;100214.50;;;14.37;57.61
51849;BME280;38952;51.090;-1.832;2023-04-27T09:19:26;100202.84;;;14.83;56.36
51849;BME280;38952;51.090;-1.832;2023-04-27T09:22:03;100206.72;;;14.82;55.19
51849;BME280;38952;51.090;-1.832;2023-04-27T09:24:32;100191.47;;;14.71;55.35
51849;BME280;38952;51.090;-1.832;2023-04-27T09:27:17;100200.38;;;14.63;55.55
51849;BME280;38952;51.090;-1.832;2023-04-27T09:30:17;100195.59;;;14.49;55.99
51849;BME280;38952;51.090;-1.832;2023-04-27T09:32:53;100193.09;;;14.34;56.45
51849;BME280;38952;51.090;-1.832;2023-04-27T09:35:47;100198.78;;;14.62;56.24
51849;BME280;38952;51.090;-1.832;2023-04-27T09:39:01;100169.22;;;14.48;55.51
51849;BME280;38952;51.090;-1.832;2023-04-27T09:41:32;100162.41;;;14.27;55.91
51849;BME280;38952;51.090;-1.832;2023-04-27T09:44:07;100174.66;;;14.16;56.39
51849;BME280;38952;51.090;-1.832;2023-04-27T09:46:41;100185.44;;;14.50;56.94
51849;BME280;38952;51.090;-1.832;2023-04-27T09:49:15;100172.63;;;14.59;56.16
51849;BME280;38952;51.090;-1.832;2023-04-27T09:51:44;100185.03;;;14.57;55.87
51849;BME280;38952;51.090;-1.832;2023-04-27T09:54:21;100168.25;;;14.39;56.48
51849;BME280;38952;51.090;-1.832;2023-04-27T09:57:14;100145.72;;;14.75;56.03
51849;BME280;38952;51.090;-1.832;2023-04-27T10:00:03;100183.66;;;15.25;55.04
51849;BME280;38952;51.090;-1.832;2023-04-27T10:08:58;100183.22;;;13.90;57.50
51849;BME280;38952;51.090;-1.832;2023-04-27T10:11:39;100161.13;;;13.52;58.40
51849;BME280;38952;51.090;-1.832;2023-04-27T10:14:09;100160.78;;;13.34;58.98
51849;BME280;38952;51.090;-1.832;2023-04-27T10:17:09;100157.69;;;13.12;60.21
51849;BME280;38952;51.090;-1.832;2023-04-27T10:19:35;100174.59;;;12.95;61.25
51849;BME280;38952;51.090;-1.832;2023-04-27T10:22:00;100185.06;;;12.87;61.96
51849;BME280;38952;51.090;-1.832;2023-04-27T10:24:38;100192.00;;;12.80;61.89
51849;BME280;38952;51.090;-1.832;2023-04-27T10:27:16;100190.16;;;12.70;62.22
51849;BME280;38952;51.090;-1.832;2023-04-27T10:29:49;100151.75;;;12.35;62.71
51849;BME280;38952;51.090;-1.832;2023-04-27T10:32:32;100172.28;;;12.38;63.49
51849;BME280;38952;51.090;-1.832;2023-04-27T10:35:05;100170.44;;;12.23;63.88
51849;BME280;38952;51.090;-1.832;2023-04-27T10:37:42;100180.28;;;12.29;64.08
51849;BME280;38952;51.090;-1.832;2023-04-27T10:40:42;100175.88;;;12.33;64.43
51849;BME280;38952;51.090;-1.832;2023-04-27T10:46:35;100187.13;;;12.71;63.78
51849;BME280;38952;51.090;-1.832;2023-04-27T10:49:15;100162.50;;;12.61;64.27
51849;BME280;38952;51.090;-1.832;2023-04-27T10:51:55;100167.72;;;12.63;63.85
51849;BME280;38952;51.090;-1.832;2023-04-27T10:54:44;100157.88;;;12.56;64.21
51849;BME280;38952;51.090;-1.832;2023-04-27T10:57:14;100187.75;;;12.63;64.53
51849;BME280;38952;51.090;-1.832;2023-04-27T11:00:07;100183.66;;;12.55;65.05
51849;BME280;38952;51.090;-1.832;2023-04-27T11:02:36;100168.28;;;12.60;64.81
51849;BME280;38952;51.090;-1.832;2023-04-27T11:05:37;100123.78;;;12.68;64.45
51849;BME280;38952;51.090;-1.832;2023-04-27T11:08:15;100157.78;;;13.01;63.51
51849;BME280;38952;51.090;-1.832;2023-04-27T11:10:46;100147.34;;;13.03;63.78
51849;BME280;38952;51.090;-1.832;2023-04-27T11:13:29;100153.16;;;13.26;63.69
51849;BME280;38952;51.090;-1.832;2023-04-27T11:16:04;100130.75;;;13.43;63.11
51849;BME280;38952;51.090;-1.832;2023-04-27T11:18:40;100113.66;;;13.70;62.44
51849;BME280;38952;51.090;-1.832;2023-04-27T11:21:16;100137.78;;;14.17;61.14
51849;BME280;38952;51.090;-1.832;2023-04-27T11:23:52;100114.44;;;13.95;60.71
51849;BME280;38952;51.090;-1.832;2023-04-27T11:26:20;100092.81;;;13.88;60.69
51849;BME280;38952;51.090;-1.832;2023-04-27T11:29:01;100094.69;;;14.31;60.86
51849;BME280;38952;51.090;-1.832;2023-04-27T11:32:03;100104.00;;;14.68;59.82
51849;BME280;38952;51.090;-1.832;2023-04-27T11:34:55;100097.31;;;14.55;59.18
51849;BME280;38952;51.090;-1.832;2023-04-27T11:37:41;100052.63;;;14.11;60.61
51849;BME280;38952;51.090;-1.832;2023-04-27T11:40:19;100058.72;;;14.08;61.30
51849;BME280;38952;51.090;-1.832;2023-04-27T11:42:58;100067.63;;;14.00;62.19
51849;BME280;38952;51.090;-1.832;2023-04-27T11:45:35;100084.25;;;13.90;62.97
51849;BME280;38952;51.090;-1.832;2023-04-27T11:48:28;100086.19;;;13.70;64.27
51849;BME280;38952;51.090;-1.832;2023-04-27T11:51:01;100046.75;;;13.42;65.00
51849;BME280;38952;51.090;-1.832;2023-04-27T11:53:34;100071.50;;;13.61;64.14
51849;BME280;38952;51.090;-1.832;2023-04-27T11:56:11;100043.56;;;13.30;64.37
51849;BME280;38952;51.090;-1.832;2023-04-27T11:58:39;100061.88;;;13.39;64.93
51849;BME280;38952;51.090;-1.832;2023-04-27T12:04:19;100074.19;;;13.42;64.74
51849;BME280;38952;51.090;-1.832;2023-04-27T12:06:47;100070.16;;;13.34;64.67
51849;BME280;38952;51.090;-1.832;2023-04-27T12:09:22;100043.34;;;13.26;64.68
51849;BME280;38952;51.090;-1.832;2023-04-27T12:11:50;100049.84;;;13.35;64.79
51849;BME280;38952;51.090;-1.832;2023-04-27T12:14:23;100030.25;;;13.42;64.71
51849;BME280;38952;51.090;-1.832;2023-04-27T12:16:57;100058.78;;;13.65;64.38
51849;BME280;38952;51.090;-1.832;2023-04-27T12:19:25;100038.72;;;13.46;63.81
51849;BME280;38952;51.090;-1.832;2023-04-27T12:21:54;100042.78;;;13.24;65.14
51849;BME280;38952;51.090;-1.832;2023-04-27T12:24:22;100063.53;;;13.11;65.20
51849;BME280;38952;51.090;-1.832;2023-04-27T12:26:48;100029.66;;;12.72;66.14
51849;BME280;38952;51.090;-1.832;2023-04-27T12:29:16;100035.72;;;12.69;66.71
51849;BME280;38952;51.090;-1.832;2023-04-27T12:31:42;100018.81;;;12.57;66.58
51849;BME280;38952;51.090;-1.832;2023-04-27T12:34:07;100029.50;;;12.58;66.95
51849;BME280;38952;51.090;-1.832;2023-04-27T12:36:55;100045.50;;;12.81;66.59
51849;BME280;38952;51.090;-1.832;2023-04-27T12:39:54;100008.97;;;12.56;67.00
51849;BME280;38952;51.090;-1.832;2023-04-27T12:42:28;100007.13;;;12.46;67.75
51849;BME280;38952;51.090;-1.832;2023-04-27T12:45:13;100062.34;;;12.69;67.74
51849;BME280;38952;51.090;-1.832;2023-04-27T12:47:39;100058.09;;;12.52;68.11
51849;BME280;38952;51.090;-1.832;2023-04-27T12:50:12;100037.63;;;12.39;68.86
51849;BME280;38952;51.090;-1.832;2023-04-27T12:52:48;100038.38;;;12.50;68.96
51849;BME280;38952;51.090;-1.832;2023-04-27T12:55:14;100029.97;;;12.36;69.30
51849;BME280;38952;51.090;-1.832;2023-04-27T12:57:40;100046.47;;;12.31;69.84
51849;BME280;38952;51.090;-1.832;2023-04-27T13:00:08;100046.22;;;11.93;71.51
51849;BME280;38952;51.090;-1.832;2023-04-27T13:02:39;100050.44;;;11.70;72.44
51849;BME280;38952;51.090;-1.832;2023-04-27T13:05:08;100066.69;;;11.51;73.75
51849;BME280;38952;51.090;-1.832;2023-04-27T13:07:38;100071.13;;;11.31;74.77
51849;BME280;38952;51.090;-1.832;2023-04-27T13:10:03;100109.50;;;11.21;76.91
51849;BME280;38952;51.090;-1.832;2023-04-27T13:12:31;100089.06;;;10.82;79.28
51849;BME280;38952;51.090;-1.832;2023-04-27T13:14:59;100090.72;;;10.63;80.60